LiveATC.Net - Listen to live air traffic control over the Internet!


ICAO: KLNA  IATA: LNA   Airport: Palm Beach County Park Airport
City: West Palm Beach   State/Province: Florida
Country: United States   Continent: North America
KPBI METAR Weather: KPBI 250153Z 07005KT 10SM SCT021 SCT035 SCT230 28/23 A3010 RMK AO2 SLP193 T02780233
KLNA Flight Activity (FlightAware)
KLNA Airport Info   (iFlightPlanner)
KLNA VFR Sectional Chart   (iFlightPlanner) 
KLNA IFR Low Chart   (iFlightPlanner) 

KLNA CTAF
Feed Status: UP   Listeners: 0
Listen in your browser - HTML5 player (in browser, HTML5)
Click here to listen with your own player (launches your MP3 player)
Archive Access: KLNA CTAF
FacilityFrequency
Lantana CTAF122.700

NOTICE

Unauthorized use prohibited. See LiveATC.net Terms of Service


Airport/ARTCC Code
Frequency Search
(e.g., 124.400, 128.75)
Site-wide search
 


Browse Feeds
Top 50 Feeds
HF Oceanic Feeds
Coverage Map
Bad Weather Areas

LiveATC FAQ
Offer LiveATC feed
Contact LiveATC.net
Press Inquiries

LiveATC on iPhone
LiveATC on Android

Windows Phone
Windows 8/10

LiveATC Mobile
(Mobile browser)

ATC Audio Archives
Interesting Recordings

LiveATC Forums


Home Page
About LiveATC.net
Make a Donation
Terms of Use
Privacy Policy

Canadian Air Freqs

AIRMETs/SIGMETs

FAA Airport Status
NAS Status
Arrival Demand


Server Software By:
Icecast.org
Liquidsoap